Time;durP1;ratioP1;P1;durP2;ratioP2;P2;SDS_P1;SDS_P2;PMS_P1;PMS_P2;Temp;Humidity;BMP_temperature;BMP_pressure;BME280_temperature;BME280_humidity;BME280_pressure;Samples;Min_cycle;Max_cycle;Signal;HPM_P1;HPM_P2
2022/03/08 00:01:46;;;;;;;8.40;4.20;;;;;;;-0.60;98.25;101786.88;5247400;28;20024;-76
2022/03/08 00:04:17;;;;;;;11.35;4.68;;;;;;;-0.66;98.09;101784.16;5244506;28;20062;-76
2022/03/08 00:06:47;;;;;;;7.95;4.50;;;;;;;-0.68;98.57;101785.81;5251473;28;20050;-76
2022/03/08 00:09:17;;;;;;;8.20;4.50;;;;;;;-0.73;98.93;101783.09;5253262;28;20051;-76
2022/03/08 00:11:47;;;;;;;7.95;4.03;;;;;;;-0.68;98.85;101780.69;5250512;28;20064;-76
2022/03/08 00:14:18;;;;;;;9.13;4.45;;;;;;;-0.62;99.31;101786.84;5253118;28;20034;-76
2022/03/08 00:16:48;;;;;;;9.00;4.70;;;;;;;-0.58;99.25;101780.97;5250969;28;20028;-76
2022/03/08 00:19:19;;;;;;;9.13;4.22;;;;;;;-0.34;95.44;101773.09;5253111;28;20034;-76
2022/03/08 00:21:49;;;;;;;8.50;4.05;;;;;;;-0.19;94.88;101778.63;5250560;28;20509;-76
2022/03/08 00:24:19;;;;;;;10.05;4.28;;;;;;;-0.23;93.46;101764.84;5250303;28;20036;-76
2022/03/08 00:26:49;;;;;;;7.47;3.78;;;;;;;-0.34;93.59;101773.09;5253252;28;20031;-76
2022/03/08 00:29:20;;;;;;;7.63;3.83;;;;;;;-0.34;95.18;101763.69;5250898;28;20024;-76
2022/03/08 00:31:50;;;;;;;8.95;3.55;;;;;;;-0.64;94.54;101757.72;5247171;28;20028;-76
2022/03/08 00:34:20;;;;;;;7.38;3.70;;;;;;;-0.65;97.18;101765.34;5243363;28;20023;-76
2022/03/08 00:36:51;;;;;;;8.98;3.97;;;;;;;-0.64;96.45;101761.97;5250094;28;20020;-76
2022/03/08 00:39:21;;;;;;;10.38;4.30;;;;;;;-0.76;97.48;101757.38;5253607;28;20166;-76
2022/03/08 00:41:51;;;;;;;9.20;4.28;;;;;;;-0.70;97.02;101761.81;5250561;28;20036;-76
2022/03/08 00:44:21;;;;;;;6.47;3.80;;;;;;;-0.78;97.43;101763.25;5254759;28;20035;-76
2022/03/08 00:46:52;;;;;;;10.65;4.60;;;;;;;-1.10;100.00;101769.19;5251039;28;20432;-76
2022/03/08 00:49:22;;;;;;;10.80;4.82;;;;;;;-1.12;100.00;101755.41;5253602;28;20024;-76
2022/03/08 00:51:52;;;;;;;8.95;4.40;;;;;;;-1.20;100.00;101757.75;5250065;28;20111;-76
2022/03/08 00:54:22;;;;;;;8.23;4.45;;;;;;;-1.17;100.00;101756.97;5250596;28;20020;-76
2022/03/08 00:56:53;;;;;;;10.32;4.70;;;;;;;-1.10;100.00;101754.63;5253343;28;20027;-76
2022/03/08 00:59:23;;;;;;;10.93;4.60;;;;;;;-1.12;100.00;101750.28;5250335;28;20104;-76
2022/03/08 01:01:53;;;;;;;12.63;4.85;;;;;;;-1.11;100.00;101737.50;5239679;28;20088;-76
2022/03/08 01:04:24;;;;;;;10.82;5.05;;;;;;;-1.17;100.00;101751.84;5245484;28;20043;-76
2022/03/08 01:06:55;;;;;;;10.38;5.00;;;;;;;-1.14;100.00;101744.25;5241214;28;20020;-76
2022/03/08 01:09:25;;;;;;;8.93;4.90;;;;;;;-1.23;100.00;101749.09;5252956;28;20012;-76
2022/03/08 01:11:56;;;;;;;8.63;4.57;;;;;;;-1.12;100.00;101750.28;5251635;28;20037;-76
2022/03/08 01:14:27;;;;;;;12.07;6.28;;;;;;;-1.06;100.00;101745.34;5257158;28;20027;-76
2022/03/08 01:16:57;;;;;;;8.65;4.82;;;;;;;-1.07;100.00;101743.63;5253574;28;20024;-76
2022/03/08 01:19:27;;;;;;;14.32;5.70;;;;;;;-0.97;100.00;101741.38;5257042;28;20110;-76
2022/03/08 01:21:58;;;;;;;10.48;5.13;;;;;;;-0.92;100.00;101746.63;5239950;28;20028;-76
2022/03/08 01:24:30;;;;;;;9.23;5.25;;;;;;;-1.04;99.78;101743.69;5243491;28;20036;-76
2022/03/08 01:27:00;;;;;;;9.70;5.22;;;;;;;-1.09;100.00;101740.13;5249766;28;20032;-75
2022/03/08 01:29:30;;;;;;;9.85;4.90;;;;;;;-1.14;99.67;101739.13;5255147;28;20028;-76
2022/03/08 01:32:01;;;;;;;9.05;4.80;;;;;;;-1.10;100.00;101738.41;5249312;28;20028;-76
2022/03/08 01:34:31;;;;;;;10.27;5.55;;;;;;;-1.03;100.00;101732.63;5249174;28;20398;-75
2022/03/08 01:37:03;;;;;;;10.73;5.20;;;;;;;-1.11;99.91;101731.50;5253836;28;20063;-75
2022/03/08 01:39:33;;;;;;;11.77;5.18;;;;;;;-1.05;100.00;101722.28;5255646;28;20060;-76
2022/03/08 01:42:12;;;;;;;11.52;5.28;;;;;;;-1.10;99.90;101728.16;5252803;28;20063;-75
2022/03/08 01:44:44;;;;;;;12.63;5.18;;;;;;;-1.02;100.00;101724.97;5255431;28;20468;-75
2022/03/08 01:47:20;;;;;;;11.00;5.15;;;;;;;-1.11;99.13;101721.25;5253834;28;20110;-75
2022/03/08 01:49:53;;;;;;;11.20;5.15;;;;;;;-1.15;100.00;101727.13;5253984;28;20108;-76
2022/03/08 01:52:25;;;;;;;11.10;5.45;;;;;;;-1.09;100.00;101717.06;5253666;28;20418;-76
2022/03/08 01:54:55;;;;;;;12.70;5.80;;;;;;;-1.14;100.00;101711.78;5240931;28;20028;-76
2022/03/08 01:57:25;;;;;;;12.52;6.20;;;;;;;-1.18;100.00;101709.97;5251214;28;20057;-76
2022/03/08 01:59:56;;;;;;;10.60;5.80;;;;;;;-1.10;100.00;101713.59;5253061;28;20070;-76
2022/03/08 02:02:26;;;;;;;12.45;6.13;;;;;;;-1.18;100.00;101709.09;5245738;28;20078;-76
2022/03/08 02:04:56;;;;;;;9.82;5.28;;;;;;;-1.23;100.00;101710.66;5248639;28;20039;-76
2022/03/08 02:07:27;;;;;;;10.15;6.25;;;;;;;-1.20;100.00;101718.44;5256368;28;20034;-75
2022/03/08 02:09:58;;;;;;;12.75;6.40;;;;;;;-1.21;100.00;101714.13;5252803;28;20074;-76
2022/03/08 02:12:29;;;;;;;11.38;6.47;;;;;;;-1.29;100.00;101705.31;5254673;28;20035;-76
2022/03/08 02:15:09;;;;;;;15.18;6.05;;;;;;;-1.28;100.00;101709.63;5253052;28;20025;-76
2022/03/08 02:17:39;;;;;;;12.32;6.35;;;;;;;-1.37;99.97;101705.09;5254250;28;20040;-75
2022/03/08 02:20:11;;;;;;;10.43;5.93;;;;;;;-1.51;100.00;101708.06;5254112;28;20556;-76
2022/03/08 02:22:43;;;;;;;12.88;6.05;;;;;;;-1.58;100.00;101706.16;5253027;28;20058;-76
2022/03/08 02:25:14;;;;;;;12.70;6.55;;;;;;;-1.55;100.00;101699.41;5253158;28;20036;-75
2022/03/08 02:27:52;;;;;;;12.27;6.13;;;;;;;-1.54;100.00;101687.47;5254767;28;20928;-76
2022/03/08 02:30:24;;;;;;;12.90;6.20;;;;;;;-1.37;100.00;101687.16;5251884;28;20036;-76
2022/03/08 02:32:56;;;;;;;9.32;5.07;;;;;;;-1.23;100.00;101685.00;5242575;28;20086;-76
2022/03/08 02:35:29;;;;;;;11.25;5.10;;;;;;;-1.31;100.00;101694.16;5252577;28;20023;-76
2022/03/08 02:38:02;;;;;;;9.65;5.18;;;;;;;-1.41;100.00;101689.59;5253212;28;20031;-75
2022/03/08 02:40:35;;;;;;;12.07;5.10;;;;;;;-1.46;100.00;101693.69;5255299;28;20024;-76
2022/03/08 02:43:08;;;;;;;12.98;5.75;;;;;;;-1.45;100.00;101695.44;5253358;28;20040;-75
2022/03/08 02:45:38;;;;;;;11.05;5.43;;;;;;;-1.48;100.00;101690.22;5254551;28;20433;-75
2022/03/08 02:48:09;;;;;;;11.30;5.80;;;;;;;-1.55;100.00;101706.25;5250923;28;20023;-76
2022/03/08 02:50:39;;;;;;;10.07;5.32;;;;;;;-1.63;100.00;101700.88;5254555;28;20059;-75
2022/03/08 02:53:10;;;;;;;10.63;5.60;;;;;;;-1.70;100.00;101705.75;5250374;28;20051;-75
2022/03/08 02:55:40;;;;;;;10.70;5.35;;;;;;;-1.78;100.00;101702.97;5253584;28;20052;-76
2022/03/08 02:58:10;;;;;;;13.70;5.90;;;;;;;-1.74;100.00;101704.78;5253901;28;20048;-76
2022/03/08 03:00:41;;;;;;;11.68;5.82;;;;;;;-1.78;100.00;101707.22;5253721;28;20035;-75
2022/03/08 03:03:11;;;;;;;16.35;6.32;;;;;;;-1.69;100.00;101710.06;5242919;28;20032;-76
2022/03/08 03:05:42;;;;;;;12.05;5.88;;;;;;;-1.67;100.00;101703.28;5251267;28;20038;-75
2022/03/08 03:08:12;;;;;;;12.43;5.72;;;;;;;-1.74;100.00;101714.19;5253026;28;20034;-76
2022/03/08 03:10:43;;;;;;;12.52;6.28;;;;;;;-1.61;100.00;101719.72;5253325;28;20047;-75
2022/03/08 03:13:13;;;;;;;14.23;6.22;;;;;;;-1.65;100.00;101704.22;5253999;28;20020;-75
2022/03/08 03:15:43;;;;;;;12.25;6.40;;;;;;;-1.80;100.00;101703.72;5253100;28;20107;-75
2022/03/08 03:18:14;;;;;;;11.70;6.43;;;;;;;-1.88;100.00;101709.41;5254334;28;20071;-76
2022/03/08 03:20:44;;;;;;;12.05;6.15;;;;;;;-1.90;100.00;101701.72;5252740;28;20372;-75
2022/03/08 03:23:14;;;;;;;9.98;5.40;;;;;;;-1.67;100.00;101705.84;5252569;28;20038;-75
2022/03/08 03:25:45;;;;;;;13.85;7.05;;;;;;;-1.74;100.00;101703.94;5254442;28;20051;-75
2022/03/08 03:28:15;;;;;;;12.32;6.45;;;;;;;-1.58;100.00;101717.25;5252132;28;20039;-75
2022/03/08 03:30:45;;;;;;;12.50;6.25;;;;;;;-1.60;100.00;101705.25;5253192;28;20020;-75
2022/03/08 03:33:15;;;;;;;12.00;6.47;;;;;;;-1.67;100.00;101705.84;5241150;28;20038;-76
2022/03/08 03:35:46;;;;;;;12.13;6.10;;;;;;;-1.62;100.00;101710.31;5254623;28;20497;-76
2022/03/08 03:38:16;;;;;;;11.52;5.78;;;;;;;-1.58;100.00;101703.59;5252333;28;20028;-76
2022/03/08 03:40:46;;;;;;;10.18;6.05;;;;;;;-1.71;100.00;101709.16;5254084;28;20031;-75
2022/03/08 03:43:16;;;;;;;12.27;6.28;;;;;;;-1.76;100.00;101701.31;5252390;28;20059;-75
2022/03/08 03:45:47;;;;;;;11.70;6.03;;;;;;;-1.68;100.00;101709.25;5254323;28;20043;-75
2022/03/08 03:48:17;;;;;;;10.43;5.78;;;;;;;-1.64;100.00;101705.94;5252259;28;20032;-75
2022/03/08 03:50:47;;;;;;;13.27;6.07;;;;;;;-1.69;100.00;101705.81;5252481;28;20451;-76
2022/03/08 03:53:17;;;;;;;12.30;5.70;;;;;;;-1.80;100.00;101713.97;5251705;28;20144;-75
2022/03/08 03:55:48;;;;;;;11.88;5.82;;;;;;;-1.85;100.00;101712.97;5254336;28;20038;-75
2022/03/08 03:58:18;;;;;;;11.77;6.00;;;;;;;-1.87;100.00;101709.47;5252086;28;20024;-75
2022/03/08 04:00:48;;;;;;;9.10;5.07;;;;;;;-2.07;100.00;101712.22;5252740;28;20024;-76
2022/03/08 04:03:19;;;;;;;12.30;5.82;;;;;;;-1.95;100.00;101713.50;5242419;28;20040;-75
2022/03/08 04:05:49;;;;;;;13.00;5.47;;;;;;;-1.88;100.00;101708.59;5250617;28;20021;-75
2022/03/08 04:08:20;;;;;;;11.27;5.55;;;;;;;-1.78;100.00;101713.22;5254467;28;20032;-75
2022/03/08 04:10:51;;;;;;;10.68;5.40;;;;;;;-1.77;100.00;101711.53;5251506;28;20506;-75
2022/03/08 04:13:21;;;;;;;11.20;5.47;;;;;;;-1.74;100.00;101719.31;5254899;28;20106;-76
2022/03/08 04:15:52;;;;;;;9.73;5.30;;;;;;;-1.94;100.00;101722.94;5251415;28;20487;-75
2022/03/08 04:18:22;;;;;;;10.90;5.38;;;;;;;-1.88;100.00;101722.22;5254365;28;20449;-75
2022/03/08 04:20:53;;;;;;;10.60;5.55;;;;;;;-1.95;100.00;101736.56;5250944;28;20088;-75
2022/03/08 04:23:23;;;;;;;9.00;5.53;;;;;;;-1.97;100.00;101727.06;5251386;28;20107;-75
2022/03/08 04:25:53;;;;;;;15.73;6.40;;;;;;;-2.04;100.00;101738.78;5254667;28;20089;-76
2022/03/08 04:28:24;;;;;;;11.20;5.72;;;;;;;-2.14;100.00;101726.50;5250990;28;20021;-75
2022/03/08 04:30:54;;;;;;;10.95;6.18;;;;;;;-2.04;100.00;101730.22;5251931;28;20054;-75
2022/03/08 04:33:24;;;;;;;12.48;6.00;;;;;;;-2.10;100.00;101727.47;5243035;28;20474;-75
2022/03/08 04:35:54;;;;;;;13.02;6.10;;;;;;;-1.95;100.00;101727.97;5247226;28;20103;-75
2022/03/08 04:38:25;;;;;;;14.73;6.22;;;;;;;-1.88;100.00;101729.91;5254750;28;20024;-75
2022/03/08 04:40:55;;;;;;;12.82;5.75;;;;;;;-1.98;100.00;101731.31;5252078;28;20024;-76
2022/03/08 04:43:25;;;;;;;12.68;6.15;;;;;;;-2.24;100.00;101734.69;5258740;28;20034;-75
2022/03/08 04:45:56;;;;;;;10.85;6.05;;;;;;;-2.19;100.00;101727.19;5255360;28;20036;-75
2022/03/08 04:48:26;;;;;;;10.55;5.90;;;;;;;-2.23;100.00;101726.19;5253359;28;20028;-75
2022/03/08 04:50:56;;;;;;;10.85;5.57;;;;;;;-2.27;100.00;101731.16;5258582;28;20060;-75
2022/03/08 04:53:27;;;;;;;10.77;5.93;;;;;;;-2.27;100.00;101729.47;5251703;28;20448;-75
2022/03/08 04:55:57;;;;;;;13.23;6.18;;;;;;;-2.17;100.00;101736.63;5256304;28;20024;-76
2022/03/08 04:58:27;;;;;;;14.13;6.20;;;;;;;-2.12;100.00;101734.25;5244978;28;20115;-75
2022/03/08 05:00:58;;;;;;;10.38;5.57;;;;;;;-2.02;100.00;101731.19;5247359;28;20385;-75
2022/03/08 05:03:29;;;;;;;14.18;5.55;;;;;;;-1.98;100.00;101723.63;5249152;28;20043;-75
2022/03/08 05:05:59;;;;;;;10.77;5.78;;;;;;;-2.14;100.00;101731.63;5252410;28;20193;-75
2022/03/08 05:08:29;;;;;;;12.75;6.05;;;;;;;-2.06;100.00;101719.06;5253271;28;20050;-75
2022/03/08 05:11:02;;;;;;;10.60;5.75;;;;;;;-2.06;100.00;101725.06;5254080;28;20492;-75
2022/03/08 05:13:32;;;;;;;10.82;5.43;;;;;;;-2.08;100.00;101730.94;5251909;28;20251;-75
2022/03/08 05:16:02;;;;;;;11.20;5.22;;;;;;;-2.03;100.00;101725.16;5252719;28;20062;-75
2022/03/08 05:18:33;;;;;;;10.50;5.20;;;;;;;-1.96;100.00;101731.38;5254967;28;20511;-75
2022/03/08 05:21:03;;;;;;;9.55;5.30;;;;;;;-1.99;100.00;101727.00;5254413;28;20032;-75
2022/03/08 05:23:33;;;;;;;10.98;5.38;;;;;;;-2.02;100.00;101729.47;5249179;28;20020;-75
2022/03/08 05:26:06;;;;;;;9.55;5.22;;;;;;;-2.03;100.00;101730.28;5248948;28;20185;-75
2022/03/08 05:28:37;;;;;;;9.95;4.88;;;;;;;-2.15;100.00;101740.13;5252629;28;20020;-75
2022/03/08 05:31:07;;;;;;;11.30;5.35;;;;;;;-2.12;100.00;101735.13;5252836;28;20016;-75
2022/03/08 05:33:38;;;;;;;12.38;5.43;;;;;;;-2.10;100.00;101733.47;5255112;28;20039;-75
2022/03/08 05:36:08;;;;;;;9.85;5.03;;;;;;;-2.11;100.00;101739.44;5256329;28;20166;-77
2022/03/08 05:38:38;;;;;;;12.77;5.13;;;;;;;-2.13;100.00;101746.16;5254943;28;20028;-77
2022/03/08 05:41:09;;;;;;;10.32;5.28;;;;;;;-2.11;100.00;101741.09;5252557;28;20032;-77
2022/03/08 05:43:39;;;;;;;10.30;5.43;;;;;;;-2.04;100.00;101743.91;5255364;28;20371;-77
2022/03/08 05:46:09;;;;;;;11.88;5.00;;;;;;;-2.19;100.00;101735.72;5255478;28;20064;-77
2022/03/08 05:48:40;;;;;;;9.80;4.63;;;;;;;-2.17;100.00;101746.88;5254306;28;20031;-77
2022/03/08 05:51:10;;;;;;;9.52;4.50;;;;;;;-2.14;100.00;101746.97;5254434;28;20506;-77
2022/03/08 05:53:40;;;;;;;7.90;3.63;;;;;;;-2.02;100.00;101749.97;5253483;28;20618;-77
2022/03/08 05:56:11;;;;;;;10.52;5.10;;;;;;;-2.08;100.00;101751.44;5254397;28;20016;-77
2022/03/08 05:58:41;;;;;;;8.77;4.35;;;;;;;-2.21;100.00;101751.84;5255473;28;20024;-77
2022/03/08 06:01:12;;;;;;;6.90;4.10;;;;;;;-2.27;100.00;101741.41;5254380;28;20036;-77
2022/03/08 06:03:42;;;;;;;8.30;4.13;;;;;;;-2.25;100.00;101743.19;5255677;28;20115;-77
2022/03/08 06:06:12;;;;;;;7.35;4.40;;;;;;;-2.02;100.00;101737.16;5254346;28;20480;-77
2022/03/08 06:08:43;;;;;;;9.50;4.72;;;;;;;-1.96;100.00;101742.47;5254389;28;20145;-77
2022/03/08 06:11:13;;;;;;;7.65;4.13;;;;;;;-1.79;100.00;101736.19;5247679;28;20024;-77
2022/03/08 06:13:43;;;;;;;7.30;3.90;;;;;;;-1.80;100.00;101734.47;5250296;28;20032;-77
2022/03/08 06:16:13;;;;;;;8.48;3.85;;;;;;;-2.01;100.00;101730.34;5255000;28;20038;-77
2022/03/08 06:18:44;;;;;;;6.75;3.63;;;;;;;-2.02;100.00;101742.28;5253645;28;20131;-78
2022/03/08 06:21:14;;;;;;;6.97;3.70;;;;;;;-1.93;100.00;101737.47;5253168;28;20043;-78
2022/03/08 06:23:44;;;;;;;7.90;3.60;;;;;;;-2.02;100.00;101734.59;5239235;28;20032;-78
2022/03/08 06:26:15;;;;;;;6.97;3.20;;;;;;;-1.90;100.00;101742.69;5242510;28;20085;-77
2022/03/08 06:28:45;;;;;;;9.93;3.75;;;;;;;-1.88;100.00;101741.03;5255828;28;20024;-78
2022/03/08 06:31:15;;;;;;;9.10;3.85;;;;;;;-1.74;100.00;101735.53;5251195;28;20031;-78
2022/03/08 06:33:45;;;;;;;7.45;3.55;;;;;;;-1.78;100.00;101740.53;5244583;28;20024;-78
2022/03/08 06:36:16;;;;;;;6.47;3.50;;;;;;;-1.71;100.00;101737.34;5249034;28;20744;-78
2022/03/08 06:38:46;;;;;;;7.80;3.88;;;;;;;-1.51;100.00;101738.81;5250379;28;20036;-78
2022/03/08 06:41:16;;;;;;;7.03;3.50;;;;;;;-1.58;100.00;101730.06;5243109;28;20036;-78
2022/03/08 06:43:46;;;;;;;8.18;3.67;;;;;;;-1.44;100.00;101735.66;5249388;28;20043;-78
2022/03/08 06:46:17;;;;;;;6.55;3.53;;;;;;;-1.33;100.00;101736.81;5251510;28;20542;-78
2022/03/08 06:48:47;;;;;;;9.85;3.90;;;;;;;-1.26;100.00;101738.78;5251079;28;20026;-78
2022/03/08 06:51:17;;;;;;;8.32;3.53;;;;;;;-1.29;100.00;101746.34;5253424;28;20470;-78
2022/03/08 06:53:48;;;;;;;12.05;3.90;;;;;;;-1.13;100.00;101735.72;5253150;28;20102;-78
2022/03/08 06:56:18;;;;;;;10.38;4.68;;;;;;;-1.03;100.00;101743.72;5252215;28;20090;-78
2022/03/08 06:58:49;;;;;;;13.90;4.35;;;;;;;-0.95;100.00;101734.56;5254820;28;20119;-78
2022/03/08 07:01:19;;;;;;;9.60;3.92;;;;;;;-0.96;100.00;101731.94;5247382;28;20398;-78
2022/03/08 07:03:49;;;;;;;7.07;3.67;;;;;;;-0.91;100.00;101730.41;5244569;28;20060;-78
2022/03/08 07:06:20;;;;;;;7.45;3.85;;;;;;;-0.80;100.00;101735.00;5257551;28;20389;-78
2022/03/08 07:08:53;;;;;;;7.72;3.78;;;;;;;-0.80;100.00;101735.00;5254641;28;20119;-78
2022/03/08 07:11:23;;;;;;;8.27;4.03;;;;;;;-0.74;100.00;101740.31;5258834;28;20111;-78
2022/03/08 07:13:53;;;;;;;9.23;4.13;;;;;;;-0.60;100.00;101739.00;5249904;28;20107;-78
2022/03/08 07:16:23;;;;;;;7.20;3.78;;;;;;;-0.62;100.00;101740.66;5258473;28;20016;-78
2022/03/08 07:18:54;;;;;;;7.55;3.85;;;;;;;-0.43;100.00;101742.00;5253937;28;20024;-79
2022/03/08 07:21:25;;;;;;;7.85;3.60;;;;;;;-0.10;100.00;101737.75;5258024;28;20028;-79
2022/03/08 07:23:55;;;;;;;9.60;4.40;;;;;;;-0.04;100.00;101733.66;5249632;28;20035;-79
2022/03/08 07:26:25;;;;;;;8.60;3.95;;;;;;;0.34;100.00;101736.34;5255118;28;20091;-79
2022/03/08 07:28:56;;;;;;;10.07;4.13;;;;;;;0.53;100.00;101735.94;5258227;28;20497;-79
2022/03/08 07:31:26;;;;;;;7.10;3.70;;;;;;;0.53;100.00;101733.38;5251598;28;20058;-79
2022/03/08 07:33:57;;;;;;;7.30;3.60;;;;;;;1.83;97.03;101732.66;5246730;28;20024;-79
2022/03/08 07:36:28;;;;;;;6.40;3.38;;;;;;;4.51;85.41;101725.78;5258856;28;20072;-80
2022/03/08 07:38:58;;;;;;;6.70;3.15;;;;;;;4.99;82.89;101720.91;5249519;28;20434;-79
2022/03/08 07:41:28;;;;;;;4.93;2.80;;;;;;;5.81;76.88;101723.81;5242705;28;20060;-79
2022/03/08 07:44:01;;;;;;;4.13;2.50;;;;;;;6.36;73.04;101720.41;5252288;28;20025;-79
2022/03/08 07:46:31;;;;;;;6.85;2.97;;;;;;;6.45;73.85;101720.41;5252929;28;20095;-80
2022/03/08 07:49:01;;;;;;;5.80;3.03;;;;;;;6.35;74.35;101729.06;5250017;28;20080;-80
2022/03/08 07:51:32;;;;;;;7.00;2.65;;;;;;;7.44;68.80;101714.09;5254132;28;20119;-80
2022/03/08 07:54:02;;;;;;;5.90;2.88;;;;;;;7.81;68.76;101720.81;5251856;28;20078;-79
2022/03/08 07:56:32;;;;;;;6.72;3.10;;;;;;;10.97;60.69;101710.72;5253740;28;20035;-80
2022/03/08 07:59:03;;;;;;;5.23;2.60;;;;;;;11.07;62.93;101708.78;5251905;28;20028;-80
2022/03/08 08:01:33;;;;;;;5.75;3.00;;;;;;;10.23;59.89;101708.56;5254689;28;20356;-79
2022/03/08 08:04:03;;;;;;;3.93;2.50;;;;;;;11.03;59.26;101704.50;5254137;28;20035;-80
2022/03/08 08:06:34;;;;;;;5.32;2.70;;;;;;;10.02;61.79;101708.91;5247134;28;21155;-79
2022/03/08 08:09:04;;;;;;;4.20;2.65;;;;;;;10.50;62.70;101702.91;5247167;28;20048;-80
2022/03/08 08:11:34;;;;;;;4.70;2.30;;;;;;;9.77;62.52;101704.88;5241640;28;20068;-80
2022/03/08 08:14:05;;;;;;;5.33;2.70;;;;;;;9.26;63.20;101705.56;5247876;28;20481;-80
2022/03/08 08:16:35;;;;;;;3.90;2.45;;;;;;;9.89;63.01;101702.09;5252382;28;20266;-80
2022/03/08 08:19:05;;;;;;;3.95;2.30;;;;;;;10.61;63.49;101693.09;5253822;28;20032;-80
2022/03/08 08:21:35;;;;;;;5.07;2.53;;;;;;;10.92;62.83;101692.53;5255858;28;20359;-80
2022/03/08 08:24:06;;;;;;;4.23;2.30;;;;;;;10.67;61.32;101690.41;5252701;28;20333;-80
2022/03/08 08:26:37;;;;;;;4.55;2.30;;;;;;;12.29;57.53;101685.97;5249688;28;20338;-80
2022/03/08 08:29:07;;;;;;;7.07;2.40;;;;;;;12.30;55.98;101686.84;5253180;28;20016;-80
2022/03/08 08:31:38;;;;;;;6.50;2.47;;;;;;;12.55;56.42;101686.19;5277518;22;20052;-82
2022/03/08 08:34:08;;;;;;;5.55;2.15;;;;;;;12.79;57.46;101690.78;5251836;28;20259;-82
2022/03/08 08:36:39;;;;;;;5.47;2.55;;;;;;;13.38;54.48;101684.75;5257314;28;20028;-82
2022/03/08 08:39:09;;;;;;;3.90;2.40;;;;;;;12.93;56.35;101688.69;5229732;28;20131;-82
2022/03/08 08:41:39;;;;;;;4.78;2.53;;;;;;;10.67;61.05;101690.41;5228407;28;20021;-80
2022/03/08 08:44:11;;;;;;;5.50;2.40;;;;;;;13.91;57.38;101681.38;5251918;28;20024;-80
2022/03/08 08:46:41;;;;;;;5.15;2.47;;;;;;;15.47;52.89;101666.19;5249592;28;20792;-80
2022/03/08 08:49:11;;;;;;;4.28;2.40;;;;;;;14.97;53.38;101670.69;5253115;28;20024;-80
2022/03/08 08:51:42;;;;;;;5.13;2.40;;;;;;;13.04;55.82;101682.22;5255351;28;20528;-80
2022/03/08 08:54:12;;;;;;;5.35;2.60;;;;;;;14.68;55.07;101670.00;5232650;28;20654;-80
2022/03/08 08:56:43;;;;;;;7.35;2.17;;;;;;;13.89;53.53;101683.19;5242857;28;20218;-79
2022/03/08 08:59:13;;;;;;;3.78;2.35;;;;;;;13.51;54.08;101681.72;5249341;28;20028;-82
2022/03/08 09:01:43;;;;;;;3.85;2.47;;;;;;;13.57;55.56;101680.69;5224515;28;20150;-80
2022/03/08 09:04:13;;;;;;;3.97;2.30;;;;;;;14.49;55.38;101671.56;5235646;28;20119;-80
2022/03/08 09:06:44;;;;;;;3.50;2.30;;;;;;;14.40;53.14;101671.84;5255040;28;20028;-80
2022/03/08 09:09:15;;;;;;;5.32;2.47;;;;;;;12.85;57.84;101677.47;5249276;28;20028;-80
2022/03/08 09:11:45;;;;;;;5.35;2.42;;;;;;;13.13;56.32;101673.22;5251643;28;20028;-80
2022/03/08 09:14:16;;;;;;;4.43;2.40;;;;;;;12.98;56.83;101675.44;5233967;28;20029;-80
2022/03/08 09:16:46;;;;;;;4.28;2.40;;;;;;;12.63;57.24;101684.22;5255738;28;20396;-80
2022/03/08 09:19:16;;;;;;;4.93;2.50;;;;;;;12.43;58.84;101683.88;5253744;28;20028;-79
2022/03/08 09:21:47;;;;;;;5.20;2.67;;;;;;;10.64;61.17;101686.06;5237767;28;20016;-79
2022/03/08 09:24:17;;;;;;;4.53;2.45;;;;;;;10.20;63.86;101685.13;5253855;28;20032;-81
2022/03/08 09:26:47;;;;;;;5.13;2.45;;;;;;;9.55;63.90;101677.38;5238475;28;20031;-81
2022/03/08 09:29:18;;;;;;;3.70;2.25;;;;;;;8.90;66.11;101685.16;5256538;28;20525;-80
2022/03/08 09:31:52;;;;;;;3.78;2.17;;;;;;;8.90;65.47;101681.69;5256299;28;20031;-81
2022/03/08 09:34:22;;;;;;;4.07;2.10;;;;;;;8.71;66.76;101681.00;5253753;28;20051;-80
2022/03/08 09:36:52;;;;;;;4.95;2.35;;;;;;;8.50;67.79;101677.75;5239224;28;20524;-80
2022/03/08 09:39:23;;;;;;;5.60;1.80;;;;;;;8.35;66.03;101681.38;5249388;28;20094;-78
2022/03/08 09:41:55;;;;;;;4.25;1.85;;;;;;;8.30;67.00;101680.56;5223842;28;20025;-79
2022/03/08 09:44:26;;;;;;;3.45;1.73;;;;;;;8.24;65.68;101683.19;5249178;28;20024;-78
2022/03/08 09:46:56;;;;;;;4.53;1.60;;;;;;;8.54;66.31;101682.91;5253230;28;20082;-81
2022/03/08 09:49:27;;;;;;;3.47;1.40;;;;;;;8.83;65.89;101682.63;5254066;28;20082;-81
2022/03/08 09:51:57;;;;;;;3.05;1.70;;;;;;;8.50;65.38;101683.84;5239107;28;20087;-78
2022/03/08 09:54:28;;;;;;;3.95;1.60;;;;;;;8.49;66.32;101681.22;5221560;28;20029;-78
2022/03/08 09:56:58;;;;;;;4.00;1.65;;;;;;;8.35;65.47;101691.78;5236674;28;20024;-80
2022/03/08 09:59:29;;;;;;;3.47;1.40;;;;;;;8.48;67.14;101690.81;5234880;28;20032;-79
2022/03/08 10:02:00;;;;;;;4.78;1.45;;;;;;;8.42;64.67;101687.41;5258255;28;20493;-80
2022/03/08 10:04:30;;;;;;;3.88;1.60;;;;;;;8.59;67.01;101681.13;5255319;28;20098;-81
2022/03/08 10:07:08;;;;;;;3.28;1.48;;;;;;;8.68;66.27;101690.59;5257895;28;20278;-81
2022/03/08 10:09:39;;;;;;;3.40;1.33;;;;;;;8.51;63.55;101687.28;5250280;28;20017;-81
2022/03/08 10:12:15;;;;;;;3.80;1.35;;;;;;;8.74;65.01;101695.75;5226703;28;20690;-82
2022/03/08 10:14:46;;;;;;;2.60;1.35;;;;;;;8.57;64.13;101682.88;5250323;28;20043;-82
2022/03/08 10:17:52;;;;;;;4.75;1.40;;;;;;;8.63;65.21;101677.63;5237835;28;20017;-81
2022/03/08 10:20:31;;;;;;;2.47;1.40;;;;;;;8.34;63.67;101673.56;5193175;28;20533;-82
2022/03/08 10:23:10;;;;;;;4.50;1.45;;;;;;;8.53;63.53;101676.00;5223533;28;20032;-80
2022/03/08 10:25:41;;;;;;;3.83;1.58;;;;;;;8.50;64.44;101673.41;5256637;28;20042;-80
2022/03/08 10:28:11;;;;;;;3.33;1.42;;;;;;;8.66;66.80;101672.38;5257057;28;20023;-81
2022/03/08 10:30:42;;;;;;;4.32;1.70;;;;;;;8.73;64.10;101668.81;5257148;28;20027;-81
2022/03/08 10:33:19;;;;;;;3.47;1.13;;;;;;;8.81;64.27;101672.22;5256070;28;20443;-81
2022/03/08 10:35:53;;;;;;;4.45;1.45;;;;;;;8.93;64.29;101672.06;5254434;28;20302;-82
2022/03/08 10:38:25;;;;;;;3.05;1.65;;;;;;;8.92;63.80;101665.13;5254014;28;20042;-81
2022/03/08 10:40:55;;;;;;;1.40;0.93;;;;;;;8.67;62.61;101668.91;5247411;28;20508;-83
2022/03/08 10:43:27;;;;;;;2.83;1.38;;;;;;;8.78;64.13;101664.44;5249137;28;20024;-82
2022/03/08 10:45:57;;;;;;;2.58;0.80;;;;;;;8.97;62.88;101658.13;5255293;28;20103;-83
2022/03/08 10:48:35;;;;;;;3.88;1.17;;;;;;;8.90;61.97;101655.63;5253066;28;20092;-81
2022/03/08 10:51:14;;;;;;;2.55;1.20;;;;;;;8.88;63.84;101653.03;5255294;28;20304;-81
2022/03/08 10:53:44;;;;;;;3.58;1.02;;;;;;;8.75;62.43;101666.22;5249218;28;20032;-81
2022/03/08 10:56:25;;;;;;;1.42;0.80;;;;;;;8.31;58.83;101663.16;5221188;28;20039;-81
2022/03/08 10:59:00;;;;;;;2.17;0.80;;;;;;;8.45;59.44;101651.78;5224224;28;20037;-79
2022/03/08 11:01:30;;;;;;;1.02;0.57;;;;;;;8.51;59.65;101651.69;5229959;28;20017;-82
2022/03/08 11:04:01;;;;;;;1.80;0.70;;;;;;;8.55;59.24;101653.38;5223916;28;20542;-82
2022/03/08 11:06:31;;;;;;;0.77;0.57;;;;;;;8.59;58.80;101649.00;5227097;28;20032;-81
2022/03/08 11:09:01;;;;;;;4.10;0.85;;;;;;;8.74;59.58;101647.09;5236434;28;20049;-79
2022/03/08 11:11:32;;;;;;;2.45;0.85;;;;;;;9.03;60.11;101625.91;5247166;28;20033;-80
2022/03/08 11:14:03;;;;;;;1.38;0.75;;;;;;;8.97;60.13;101629.47;5251550;28;20050;-82
2022/03/08 11:16:34;;;;;;;1.77;0.77;;;;;;;9.02;58.50;101629.38;5254914;28;20032;-80
2022/03/08 11:19:05;;;;;;;2.70;0.68;;;;;;;8.76;56.92;101615.81;5256529;28;20050;-80
2022/03/08 11:21:36;;;;;;;2.47;0.93;;;;;;;8.63;59.08;101622.91;5255497;28;20334;-82
2022/03/08 11:24:08;;;;;;;2.00;0.98;;;;;;;8.98;59.48;101623.38;5255806;28;20096;-81
2022/03/08 11:26:39;;;;;;;1.52;0.75;;;;;;;8.78;57.65;101621.88;5226670;28;20025;-81
2022/03/08 11:29:11;;;;;;;3.25;0.93;;;;;;;8.75;57.72;101625.38;5256522;28;20020;-81
2022/03/08 11:31:45;;;;;;;2.20;0.90;;;;;;;8.64;58.29;101629.84;5236474;28;20242;-81
2022/03/08 11:34:26;;;;;;;2.33;0.85;;;;;;;8.50;56.32;101625.66;5256751;28;20031;-81
2022/03/08 11:37:01;;;;;;;2.15;0.90;;;;;;;8.74;59.03;101617.59;5250247;28;20586;-81